Portada
METAR-TAF:

METAR-TAF

Aeropuertos :

Aeropuerto de Burgos

Burgos, España

latitud: 42-22N, longitud: 003-38W, altitud: 894 m

Observación

El informe se hizo hace 41 minutos, a las 03:00 UTC
Viento calma
Temperatura 11°C
Humedad 100%
Presión 1021 hPa
Visibilidad 10 km o más

METAR: LEBG 200300Z AUTO 00000KT 9999 NCD 11/11 Q1021

Hora: 05:41 (03:41 UTC)

Pronóstico

El informe se hizo hace 1 hora y 41 minutos, a las 02:00 UTC
Pronóstico válido del 20 a las 03 UTC al 20 a las 12 UTC
Viento 5 kt con dirección variable
Visibilidad 10 km o más
Escasas nubes a una altura de 3000 ft

TAF: LEBG 200200Z 2003/2012 VRB05KT 9999 FEW030

Observaciones y pronósticos meteorológicos de más de 4000 aeropuertos (mensajes METAR y TAF).

Los puntos amarillos y rojos representan las estaciones disponibles.

Ponga el ratón en el punto deseado para ver el nombre de la estación.

Haga clic para ver las observaciones y los pronósticos meteorológicos.

Para cambiar el mapa : haga clic en los botones verdes con una cruz de color negro para hacer un zoom, en el botón verde con un guión para alejar o en las flechas verdes para mapas adyacentes.


METAR-TAF: